METAR Data
IDs: Format: Raw Decoded Include TAF

Data at: 1759 UTC 06 Jul 2020

KGCY 061755Z AUTO 00000KT 10SM FEW044 BKN050 BKN065 29/19 A3008 RMK A01
KGCY 061735Z AUTO 22003KT 9SM SCT044 BKN049 BKN055 29/20 A3008 RMK A01
KGCY 061715Z AUTO 21003KT 10SM FEW050 SCT060 29/18 A3008 RMK A01
KGCY 061655Z AUTO VRB03KT 10SM CLR 30/17 A3010 RMK A01
KGCY 061635Z AUTO 02006KT 10SM FEW042 30/17 A3010 RMK A01
KGCY 061615Z AUTO 06005KT 10SM SCT042 29/17 A3010 RMK A01
KGCY 061555Z AUTO 00000KT 10SM CLR 29/18 A3010 RMK A01
KGCY 061535Z AUTO VRB04KT 10SM CLR 28/19 A3010 RMK A01
KGCY 061515Z AUTO 04005KT 10SM CLR 28/19 A3010 RMK A01
KGCY 061455Z AUTO 00000KT 10SM CLR 27/20 A3010 RMK A01
KGCY 061435Z AUTO 35005KT 10SM CLR 27/20 A3010 RMK A01
KGCY 061415Z AUTO 34005KT 10SM CLR 26/20 A3010 RMK A01
KGCY 061355Z AUTO VRB03KT 10SM CLR 26/19 A3010 RMK A01
KGCY 061335Z AUTO 00000KT 10SM CLR 25/19 A3010 RMK A01
KGCY 061315Z AUTO 00000KT 10SM CLR 25/20 A3009 RMK A01
KGCY 061255Z AUTO 00000KT 10SM CLR 25/20 A3009 RMK A01
KGCY 061235Z AUTO 00000KT 10SM CLR 24/19 A3009 RMK A01
KGCY 061215Z AUTO 00000KT 10SM CLR 24/20 A3008 RMK A01
KGCY 061155Z AUTO 00000KT 10SM CLR 23/19 A3008 RMK A01
KGCY 061135Z AUTO 00000KT 10SM CLR 21/19 A3008 RMK A01
KGCY 061115Z AUTO 00000KT 10SM CLR 21/19 A3007 RMK A01
KGCY 061055Z AUTO 00000KT 10SM CLR 20/19 A3007 RMK A01
KGCY 061035Z AUTO 00000KT 9SM FEW120 20/19 A3006 RMK A01
KGCY 061015Z AUTO 00000KT 10SM FEW120 20/19 A3006 RMK A01
KGCY 060955Z AUTO 00000KT 10SM CLR 21/19 A3005 RMK A01
KGCY 060935Z AUTO 00000KT 10SM CLR 21/19 A3004 RMK A01
KGCY 060915Z AUTO 00000KT 10SM CLR 22/19 A3003 RMK A01
KGCY 060855Z AUTO 00000KT 10SM CLR 22/19 A3002 RMK A01
KGCY 060835Z AUTO 10003KT 10SM CLR 22/19 A3002 RMK A01
KGCY 060815Z AUTO 00000KT 10SM CLR 22/19 A3002 RMK A01
KGCY 060755Z AUTO 00000KT 10SM CLR 22/19 A3002 RMK A01
KGCY 060735Z AUTO 00000KT 10SM CLR 22/19 A3002 RMK A01
KGCY 060715Z AUTO 00000KT 10SM CLR 22/20 A3002 RMK A01
KGCY 060655Z AUTO 00000KT 10SM CLR 23/20 A3002 RMK A01
KGCY 060635Z AUTO 00000KT 10SM CLR 23/20 A3003 RMK A01
KGCY 060615Z AUTO 00000KT 10SM CLR 23/20 A3003 RMK A01
KGCY 060555Z AUTO 00000KT 10SM CLR 23/20 A3004 RMK A01
KGCY 060535Z AUTO 00000KT 10SM CLR 23/21 A3004 RMK A01
KGCY 060515Z AUTO 11003KT 10SM CLR 23/21 A3004 RMK A01
KGCY 060455Z AUTO 12003KT 10SM SCT110 23/21 A3005 RMK A01
KGCY 060435Z AUTO 12003KT 10SM SCT120 24/21 A3005 RMK A01
KGCY 060415Z AUTO 00000KT 10SM FEW110 24/21 A3005 RMK A01
KGCY 060355Z AUTO 10003KT 10SM FEW110 24/21 A3005 RMK A01
KGCY 060335Z AUTO VRB06KT 10SM CLR 24/20 A3005 RMK A01
KGCY 060315Z AUTO 00000KT 10SM SCT050 SCT055 24/20 A3005 RMK A01
KGCY 060255Z AUTO 10003KT 10SM SCT050 SCT055 25/20 A3004 RMK A01
KGCY 060235Z AUTO 09004KT 10SM SCT050 25/20 A3004 RMK A01
KGCY 060215Z AUTO 10005KT 10SM FEW050 FEW055 FEW085 25/20 A3004 RMK A01
KGCY 060155Z AUTO 11003KT 10SM BKN055 BKN070 BKN085 25/20 A3003 RMK A01
KGCY 060135Z AUTO 00000KT 10SM BKN050 OVC060 25/20 A3003 RMK A01
KGCY 060115Z AUTO 08003KT 10SM BKN050 BKN060 25/20 A3002 RMK A01
KGCY 060055Z AUTO 02004KT 10SM FEW050 26/20 A3001 RMK A01
KGCY 060035Z AUTO 00000KT 10SM CLR 25/20 A3000 RMK A01
KGCY 060015Z AUTO 00000KT 10SM CLR 26/20 A2999 RMK A01
KGCY 052355Z AUTO 00000KT 10SM CLR 27/20 A2999 RMK A01
KGCY 052335Z AUTO 36004KT 10SM CLR 27/20 A2999 RMK A01
KGCY 052315Z AUTO VRB04KT 10SM CLR 27/19 A2998 RMK A01
KGCY 052255Z AUTO 06005KT 10SM CLR 27/19 A2998 RMK A01
KGCY 052235Z AUTO 07004KT 10SM CLR 26/19 A2998 RMK A01
KGCY 052215Z AUTO VRB04KT 10SM CLR 27/19 A2998 RMK A01
KGCY 052155Z AUTO VRB04KT 10SM CLR 28/20 A2998 RMK A01
KGCY 052135Z AUTO 00000KT 10SM CLR 28/19 A2998 RMK A01
KGCY 052115Z AUTO VRB03KT 10SM FEW033 FEW046 SCT070 27/18 A2998 RMK A01
KGCY 052055Z AUTO VRB05KT 10SM SCT034 SCT046 BKN050 27/18 A2999 RMK A01
KGCY 052035Z AUTO 00000KT 10SM CLR 28/21 A3000 RMK A01
KGCY 052015Z AUTO VRB05KT 10SM CLR 28/21 A3000 RMK A01
KGCY 051955Z AUTO 28005KT 10SM CLR 29/22 A3001 RMK A01
KGCY 051935Z AUTO 25005KT 10SM CLR 29/21 A3000 RMK A01
KGCY 051915Z AUTO 25004KT 10SM FEW050 FEW065 FEW075 30/21 A3001 RMK A01
KGCY 051855Z AUTO 27006KT 10SM FEW042 FEW065 SCT075 30/20 A3001 RMK A01
KGCY 051835Z AUTO 27005KT 10SM FEW042 SCT050 SCT065 31/21 A3001 RMK A01
KGCY 051815Z AUTO VRB06KT 10SM FEW070 32/21 A3001 RMK A01
KGCY 051755Z AUTO 00000KT 10SM CLR 31/20 A3001 RMK A01
KGCY 051735Z AUTO 26004KT 10SM CLR 30/21 A3002 RMK A01
KGCY 051715Z AUTO VRB04KT 10SM FEW035 30/21 A3003 RMK A01
KGCY 051655Z AUTO 00000KT 10SM FEW034 30/21 A3004 RMK A01
KGCY 051635Z AUTO 28004KT 10SM SCT034 29/21 A3004 RMK A01
KGCY 051615Z AUTO VRB03KT 10SM FEW033 29/21 A3005 RMK A01
KGCY 051555Z AUTO 00000KT 10SM CLR 29/21 A3005 RMK A01
KGCY 051535Z AUTO 00000KT 10SM CLR 29/20 A3005 RMK A01
KGCY 051515Z AUTO VRB04KT 10SM FEW100 29/21 A3005 RMK A01
KGCY 051455Z AUTO 00000KT 10SM SCT100 28/21 A3005 RMK A01
KGCY 051435Z AUTO 21003KT 10SM FEW100 27/20 A3005 RMK A01
KGCY 051415Z AUTO 23005KT 10SM CLR 28/20 A3004 RMK A01
KGCY 051355Z AUTO 23005KT 10SM CLR 27/20 A3004 RMK A01
KGCY 051335Z AUTO 00000KT 10SM CLR 27/20 A3004 RMK A01
KGCY 051315Z AUTO 00000KT 10SM CLR 26/20 A3004 RMK A01
KGCY 051255Z AUTO 00000KT 10SM CLR 25/20 A3003 RMK A01
KGCY 051235Z AUTO 00000KT 9SM CLR 24/20 A3003 RMK A01
KGCY 051215Z AUTO 00000KT 10SM CLR 24/20 A3002 RMK A01
KGCY 051155Z AUTO 00000KT 8SM BKN095 23/20 A3002 RMK A01
KGCY 051135Z AUTO 00000KT 9SM SCT095 22/20 A3002 RMK A01
KGCY 051115Z AUTO 00000KT 7SM CLR 22/19 A3002 RMK A01
KGCY 051055Z AUTO 00000KT 6SM BR CLR 21/19 A3001 RMK A01
KGCY 051035Z AUTO 00000KT 6SM BR CLR 21/19 A3001 RMK A01
KGCY 051015Z AUTO 00000KT 4SM BR CLR 21/19 A3000 RMK A01
KGCY 050955Z AUTO 00000KT 7SM CLR 21/19 A3000 RMK A01
KGCY 050935Z AUTO 00000KT 7SM CLR 21/19 A2999 RMK A01
KGCY 050915Z AUTO 00000KT 6SM BR CLR 21/19 A2999 RMK A01
KGCY 050855Z AUTO 03004KT 7SM CLR 21/19 A2998 RMK A01
KGCY 050835Z AUTO 00000KT 7SM CLR 21/19 A2998 RMK A01
KGCY 050815Z AUTO 00000KT 5SM BR CLR 20/19 A2997 RMK A01
KGCY 050755Z AUTO 00000KT 5SM BR CLR 20/19 A2997 RMK A01
KGCY 050735Z AUTO 00000KT 6SM BR CLR 21/20 A2997 RMK A01
KGCY 050715Z AUTO 00000KT 7SM CLR 21/19 A2998 RMK A01
KGCY 050655Z AUTO 00000KT 7SM CLR 21/20 A2998 RMK A01
KGCY 050635Z AUTO 00000KT 8SM CLR 21/19 A2999 RMK A01
KGCY 050615Z AUTO 05004KT 8SM CLR 23/20 A2999 RMK A01